createdAt,value
2017-07-22T00:00:42.315Z,3.70
2017-07-22T00:03:09.759Z,3.60
2017-07-22T00:05:37.203Z,3.10
2017-07-22T00:08:04.663Z,4.25
2017-07-22T00:10:32.100Z,3.53
2017-07-22T00:12:59.539Z,3.30
2017-07-22T00:15:26.989Z,3.03
2017-07-22T00:17:54.486Z,2.80
2017-07-22T00:20:21.941Z,2.90
2017-07-22T00:22:49.379Z,3.00
2017-07-22T00:25:16.835Z,3.40
2017-07-22T00:27:44.319Z,3.50
2017-07-22T00:30:11.757Z,3.08
2017-07-22T00:32:39.188Z,3.30
2017-07-22T00:35:06.630Z,3.17
2017-07-22T00:37:34.074Z,3.17
2017-07-22T00:40:01.521Z,3.00
2017-07-22T00:42:29.763Z,2.92
2017-07-22T00:44:57.224Z,3.37
2017-07-22T00:47:24.681Z,4.10
2017-07-22T00:49:52.172Z,4.10
2017-07-22T00:52:19.682Z,3.15
2017-07-22T00:54:47.131Z,3.30
2017-07-22T00:57:14.597Z,3.15
2017-07-22T00:59:42.049Z,3.78
2017-07-22T01:02:09.499Z,3.60
2017-07-22T01:04:36.942Z,3.10
2017-07-22T01:07:04.372Z,4.20
2017-07-22T01:09:31.878Z,2.72
2017-07-22T01:11:59.338Z,3.05
2017-07-22T01:14:26.794Z,2.90
2017-07-22T01:16:54.351Z,3.30
2017-07-22T01:19:21.809Z,3.20
2017-07-22T01:21:49.266Z,3.20
2017-07-22T01:24:16.695Z,3.00
2017-07-22T01:26:44.143Z,3.30
2017-07-22T01:29:11.572Z,3.10
2017-07-22T01:31:39.051Z,2.83
2017-07-22T01:34:06.536Z,3.00
2017-07-22T01:36:34.019Z,2.83
2017-07-22T01:39:02.244Z,3.10
2017-07-22T01:41:29.694Z,4.00
2017-07-22T01:43:57.131Z,3.10
2017-07-22T01:46:24.626Z,3.03
2017-07-22T01:48:52.054Z,3.50
2017-07-22T01:51:19.514Z,3.30
2017-07-22T01:53:47.003Z,3.50
2017-07-22T01:56:14.467Z,2.97
2017-07-22T01:58:41.916Z,3.40
2017-07-22T02:01:09.386Z,2.97
2017-07-22T02:03:36.851Z,3.10
2017-07-22T02:06:04.359Z,3.50
2017-07-22T02:08:31.844Z,3.47
2017-07-22T02:10:59.291Z,3.15
2017-07-22T02:13:26.723Z,3.45
2017-07-22T02:15:54.225Z,3.20
2017-07-22T02:18:21.685Z,3.10
2017-07-22T02:20:49.115Z,2.92
2017-07-22T02:23:16.563Z,3.05
2017-07-22T02:25:44.035Z,2.95
2017-07-22T02:28:11.481Z,3.05
2017-07-22T02:30:38.938Z,3.22
2017-07-22T02:33:06.531Z,3.30
2017-07-22T02:35:33.976Z,3.40
2017-07-22T02:38:01.425Z,3.15
2017-07-22T02:40:28.866Z,3.60
2017-07-22T02:42:56.309Z,3.65
2017-07-22T02:45:23.808Z,3.10
2017-07-22T02:47:51.257Z,3.63
2017-07-22T02:50:18.697Z,3.22
2017-07-22T02:52:46.155Z,3.40
2017-07-22T02:55:13.603Z,3.12
2017-07-22T02:57:41.043Z,3.30
2017-07-22T03:00:08.480Z,3.33
2017-07-22T03:02:35.976Z,3.00
2017-07-22T03:05:03.454Z,3.30
2017-07-22T03:07:30.890Z,3.05
2017-07-22T03:09:58.351Z,3.00
2017-07-22T03:12:25.784Z,3.85
2017-07-22T03:14:53.230Z,3.10
2017-07-22T03:17:20.664Z,3.12
2017-07-22T03:19:48.883Z,3.70
2017-07-22T03:22:16.374Z,3.30
2017-07-22T03:24:43.813Z,2.90
2017-07-22T03:27:11.254Z,3.30
2017-07-22T03:29:38.843Z,3.28
2017-07-22T03:32:06.307Z,3.17
2017-07-22T03:34:34.581Z,3.03
2017-07-22T03:37:02.130Z,3.20
2017-07-22T03:39:29.573Z,3.20
2017-07-22T03:41:57.045Z,3.10
2017-07-22T03:44:24.474Z,3.60
2017-07-22T03:46:51.925Z,4.10
2017-07-22T03:49:19.413Z,3.37
2017-07-22T03:51:46.861Z,3.90
2017-07-22T03:54:14.387Z,3.55
2017-07-22T03:56:41.885Z,3.80
2017-07-22T03:59:09.322Z,4.07
2017-07-22T04:01:36.775Z,3.65
2017-07-22T04:04:04.232Z,3.70
2017-07-22T04:06:31.677Z,3.90
2017-07-22T04:08:59.121Z,3.42
2017-07-22T04:11:26.594Z,3.50
2017-07-22T04:13:54.166Z,3.22
2017-07-22T04:16:21.724Z,3.47
2017-07-22T04:18:49.197Z,3.80
2017-07-22T04:21:16.623Z,3.73
2017-07-22T04:23:44.065Z,3.00
2017-07-22T04:26:11.575Z,3.75
2017-07-22T04:28:39.110Z,3.42
2017-07-22T04:31:06.637Z,4.05
2017-07-22T04:33:34.075Z,3.60
2017-07-22T04:36:01.522Z,3.40
2017-07-22T04:38:29.769Z,3.78
2017-07-22T04:40:57.199Z,3.17
2017-07-22T04:43:24.664Z,3.42
2017-07-22T04:45:52.143Z,4.03
2017-07-22T04:48:20.347Z,3.75
2017-07-22T04:50:47.848Z,4.30
2017-07-22T04:53:15.283Z,4.10
2017-07-22T04:55:42.738Z,3.25
2017-07-22T04:58:10.232Z,3.40
2017-07-22T05:00:38.482Z,3.37
2017-07-22T05:03:05.950Z,3.47
2017-07-22T05:05:33.387Z,4.10
2017-07-22T05:08:00.854Z,3.58
2017-07-22T05:10:28.291Z,3.28
2017-07-22T05:12:55.878Z,3.90
2017-07-22T05:15:23.412Z,3.80
2017-07-22T05:17:50.854Z,3.80
2017-07-22T05:20:18.382Z,4.10
2017-07-22T05:22:45.886Z,3.80
2017-07-22T05:25:13.338Z,2.90
2017-07-22T05:27:40.794Z,3.60
2017-07-22T05:30:08.258Z,3.50
2017-07-22T05:32:35.716Z,3.80
2017-07-22T05:35:03.156Z,3.20
2017-07-22T05:37:30.630Z,3.20
2017-07-22T05:39:58.080Z,3.75
2017-07-22T05:42:25.765Z,3.50
2017-07-22T05:44:53.197Z,3.45
2017-07-22T05:47:20.715Z,3.45
2017-07-22T05:49:48.157Z,3.20
2017-07-22T05:52:15.813Z,3.50
2017-07-22T05:54:43.296Z,3.42
2017-07-22T05:57:10.747Z,3.30
2017-07-22T05:59:38.193Z,3.83
2017-07-22T06:02:05.645Z,3.17
2017-07-22T06:04:33.107Z,3.60
2017-07-22T06:07:00.570Z,3.87
2017-07-22T06:09:28.001Z,3.50
2017-07-22T06:11:55.436Z,4.70
2017-07-22T06:14:22.927Z,4.00
2017-07-22T06:16:50.465Z,4.05
2017-07-22T06:19:17.946Z,3.90
2017-07-22T06:21:46.200Z,4.17
2017-07-22T06:24:13.629Z,3.70
2017-07-22T06:26:41.072Z,4.30
2017-07-22T06:29:08.539Z,3.83
2017-07-22T06:31:35.994Z,4.03
2017-07-22T06:34:03.484Z,4.53
2017-07-22T06:36:30.907Z,3.62
2017-07-22T06:38:58.391Z,4.20
2017-07-22T06:41:25.932Z,4.28
2017-07-22T06:43:53.387Z,4.53
2017-07-22T06:46:20.827Z,4.15
2017-07-22T06:48:48.301Z,4.17
2017-07-22T06:51:15.829Z,4.10
2017-07-22T06:53:43.414Z,4.40
2017-07-22T06:56:10.849Z,4.50
2017-07-22T06:58:38.390Z,4.50
2017-07-22T07:01:05.850Z,4.95
2017-07-22T07:03:33.315Z,5.03
2017-07-22T07:06:00.747Z,4.72
2017-07-22T07:08:28.207Z,4.97
2017-07-22T07:10:55.649Z,4.47
2017-07-22T07:13:23.146Z,5.15
2017-07-22T07:15:50.695Z,5.25
2017-07-22T07:18:18.247Z,5.30
2017-07-22T07:20:45.700Z,5.03
2017-07-22T07:23:13.237Z,5.20
2017-07-22T07:25:40.669Z,5.50
2017-07-22T07:28:08.106Z,5.60
2017-07-22T07:30:36.350Z,6.00
2017-07-22T07:33:03.797Z,5.80
2017-07-22T07:35:31.278Z,5.70
2017-07-22T07:37:58.736Z,6.50
2017-07-22T07:40:26.351Z,5.53
2017-07-22T07:42:53.833Z,5.80
2017-07-22T07:45:21.262Z,6.10
2017-07-22T07:47:48.694Z,6.40
2017-07-22T07:50:16.278Z,6.80
2017-07-22T07:52:43.880Z,6.97
2017-07-22T07:55:11.379Z,6.60
2017-07-22T07:57:38.838Z,7.00
2017-07-22T08:00:06.271Z,6.80
2017-07-22T08:02:34.487Z,6.90
2017-07-22T08:05:02.040Z,7.50
2017-07-22T08:07:29.537Z,7.10
2017-07-22T08:09:56.959Z,7.12
2017-07-22T08:12:24.453Z,7.00
2017-07-22T08:14:51.969Z,7.55
2017-07-22T08:17:19.403Z,7.45
2017-07-22T08:19:46.923Z,7.70
2017-07-22T08:22:14.507Z,7.50
2017-07-22T08:24:42.018Z,6.87
2017-07-22T08:27:09.470Z,7.22
2017-07-22T08:29:36.909Z,7.73
2017-07-22T08:32:04.399Z,7.65
2017-07-22T08:34:31.838Z,7.20
2017-07-22T08:36:59.322Z,7.80
2017-07-22T08:39:27.545Z,8.10
2017-07-22T08:41:55.052Z,9.20
2017-07-22T08:44:22.590Z,7.62
2017-07-22T08:46:50.079Z,7.65
2017-07-22T08:49:18.299Z,8.27
2017-07-22T08:51:45.731Z,8.38
2017-07-22T08:54:13.169Z,8.13
2017-07-22T08:56:41.430Z,7.60
2017-07-22T08:59:08.980Z,8.27
2017-07-22T09:01:36.411Z,8.82
2017-07-22T09:04:03.878Z,9.32
2017-07-22T09:06:31.363Z,8.63
2017-07-22T09:08:58.914Z,9.75
2017-07-22T09:11:26.473Z,10.07
2017-07-22T09:13:54.029Z,8.67
2017-07-22T09:16:21.503Z,9.50
2017-07-22T09:18:49.035Z,9.25
2017-07-22T09:21:16.591Z,10.27
2017-07-22T09:23:44.068Z,10.70
2017-07-22T09:26:11.535Z,11.13
2017-07-22T09:28:39.839Z,10.00
2017-07-22T09:31:07.339Z,10.15
2017-07-22T09:33:35.224Z,9.90
2017-07-22T09:36:03.245Z,10.02
2017-07-22T09:38:32.048Z,10.50
2017-07-22T09:40:59.965Z,11.50
2017-07-22T09:43:27.973Z,10.95
2017-07-22T09:45:55.938Z,11.77
2017-07-22T09:48:24.112Z,11.60
2017-07-22T09:50:51.958Z,12.85
2017-07-22T09:53:20.764Z,12.45
2017-07-22T09:55:48.738Z,12.55
2017-07-22T09:58:16.392Z,11.45
2017-07-22T10:00:43.820Z,11.90
2017-07-22T10:03:12.027Z,13.65
2017-07-22T10:05:39.477Z,13.23
2017-07-22T10:08:07.054Z,14.05
2017-07-22T10:10:34.525Z,14.13
2017-07-22T10:13:01.981Z,16.15
2017-07-22T10:15:29.445Z,15.75
2017-07-22T10:17:56.991Z,14.25
2017-07-22T10:20:24.442Z,14.82
2017-07-22T10:22:51.883Z,15.47
2017-07-22T10:25:19.369Z,17.30
2017-07-22T10:27:46.824Z,16.10
2017-07-22T10:30:14.276Z,17.95
2017-07-22T10:32:41.736Z,17.10
2017-07-22T10:35:09.294Z,16.95
2017-07-22T10:37:36.829Z,16.42
2017-07-22T10:40:04.308Z,17.10
2017-07-22T10:42:31.762Z,16.70
2017-07-22T10:44:59.195Z,16.92
2017-07-22T10:47:26.649Z,18.50
2017-07-22T10:49:54.210Z,16.60
2017-07-22T10:52:21.696Z,15.88
2017-07-22T10:54:49.243Z,16.43
2017-07-22T10:57:16.694Z,17.08
2017-07-22T10:59:44.169Z,16.80
2017-07-22T11:02:11.626Z,19.00
2017-07-22T11:04:39.176Z,17.02
2017-07-22T11:07:06.620Z,19.35
2017-07-22T11:09:34.055Z,18.98
2017-07-22T11:12:01.573Z,18.30
2017-07-22T11:14:29.912Z,17.80
2017-07-22T11:16:57.388Z,17.92
2017-07-22T11:19:24.956Z,17.42
2017-07-22T11:21:52.411Z,17.30
2017-07-22T11:24:19.858Z,17.02
2017-07-22T11:26:47.342Z,17.10
2017-07-22T11:29:15.562Z,17.20
2017-07-22T11:31:43.020Z,17.60
2017-07-22T11:34:10.463Z,17.35
2017-07-22T11:36:37.947Z,17.70
2017-07-22T11:39:05.529Z,20.25
2017-07-22T11:41:32.968Z,17.33
2017-07-22T11:44:00.407Z,17.77
2017-07-22T11:46:27.949Z,15.18
2017-07-22T11:48:55.509Z,16.07
2017-07-22T11:51:22.987Z,16.52
2017-07-22T11:53:50.466Z,17.10
2017-07-22T11:56:17.909Z,20.35
2017-07-22T11:58:45.389Z,17.70
2017-07-22T12:01:13.591Z,17.97
2017-07-22T12:03:41.140Z,17.12
2017-07-22T12:06:08.652Z,17.20
2017-07-22T12:08:36.241Z,17.45
2017-07-22T12:11:04.488Z,17.90
2017-07-22T12:13:31.927Z,18.42
2017-07-22T12:15:59.359Z,17.77
2017-07-22T12:18:26.858Z,15.55
2017-07-22T12:20:54.328Z,15.60
2017-07-22T12:23:21.799Z,14.38
2017-07-22T12:25:50.027Z,15.68
2017-07-22T12:28:17.574Z,14.50
2017-07-22T12:30:45.047Z,15.10
2017-07-22T12:33:12.589Z,15.30
2017-07-22T12:35:40.070Z,15.52
2017-07-22T12:38:07.605Z,14.10
2017-07-22T12:40:35.031Z,14.30
2017-07-22T12:43:02.488Z,13.87
2017-07-22T12:45:30.729Z,13.85
2017-07-22T12:47:58.251Z,14.50
2017-07-22T12:50:25.720Z,18.17
2017-07-22T12:52:53.262Z,15.43
2017-07-22T12:55:20.716Z,13.45
2017-07-22T12:57:48.221Z,15.10
2017-07-22T13:00:15.677Z,14.00
2017-07-22T13:02:43.179Z,13.35
2017-07-22T13:05:10.632Z,13.45
2017-07-22T13:07:38.081Z,14.73
2017-07-22T13:10:05.541Z,12.30
2017-07-22T13:12:33.036Z,13.10
2017-07-22T13:15:00.499Z,11.63
2017-07-22T13:17:27.978Z,11.55
2017-07-22T13:19:55.587Z,12.32
2017-07-22T13:22:23.029Z,10.75
2017-07-22T13:24:50.587Z,11.85
2017-07-22T13:27:18.102Z,11.00
2017-07-22T13:29:45.533Z,11.93
2017-07-22T13:32:12.985Z,11.63
2017-07-22T13:34:40.461Z,11.05
2017-07-22T13:37:08.021Z,11.00
2017-07-22T13:39:35.646Z,10.40
2017-07-22T13:42:03.208Z,10.18
2017-07-22T13:44:30.643Z,10.70
2017-07-22T13:46:58.084Z,10.10
2017-07-22T13:49:25.595Z,10.50
2017-07-22T13:51:53.061Z,11.15
2017-07-22T13:54:20.587Z,13.02
2017-07-22T13:56:48.045Z,11.47
2017-07-22T13:59:15.623Z,12.45
2017-07-22T14:01:43.102Z,13.00
2017-07-22T14:04:10.606Z,13.13
2017-07-22T14:06:38.059Z,13.18
2017-07-22T14:09:05.501Z,13.70
2017-07-22T14:11:32.957Z,13.32
2017-07-22T14:14:01.189Z,13.68
2017-07-22T14:16:28.651Z,12.82
2017-07-22T14:18:56.106Z,13.00
2017-07-22T14:21:23.572Z,13.85
2017-07-22T14:23:50.999Z,13.50
2017-07-22T14:26:18.451Z,12.70
2017-07-22T14:28:45.920Z,14.63
2017-07-22T14:31:13.382Z,13.88
2017-07-22T14:33:40.835Z,12.90
2017-07-22T14:36:08.292Z,13.00
2017-07-22T14:38:35.749Z,13.30
2017-07-22T14:41:03.281Z,11.90
2017-07-22T14:43:30.776Z,11.98
2017-07-22T14:45:58.328Z,13.52
2017-07-22T14:48:25.770Z,12.88
2017-07-22T14:50:53.217Z,14.07
2017-07-22T14:53:20.679Z,14.48
2017-07-22T14:55:48.147Z,15.15
2017-07-22T14:58:15.610Z,13.73
2017-07-22T15:00:43.061Z,13.80
2017-07-22T15:03:10.534Z,15.05
2017-07-22T15:05:37.999Z,13.60
2017-07-22T15:08:05.459Z,13.52
2017-07-22T15:10:33.821Z,14.40
2017-07-22T15:13:01.322Z,14.25
2017-07-22T15:15:28.763Z,14.35
2017-07-22T15:17:57.009Z,14.57
2017-07-22T15:20:24.669Z,14.90
2017-07-22T15:22:52.236Z,13.57
2017-07-22T15:25:19.707Z,14.00
2017-07-22T15:27:47.235Z,14.70
2017-07-22T15:30:14.691Z,15.00
2017-07-22T15:32:43.036Z,13.85
2017-07-22T15:35:10.496Z,14.25
2017-07-22T15:37:37.933Z,14.73
2017-07-22T15:40:05.416Z,14.17
2017-07-22T15:42:32.933Z,13.25
2017-07-22T15:45:00.487Z,14.20
2017-07-22T15:47:28.073Z,13.68
2017-07-22T15:49:55.514Z,13.23
2017-07-22T15:52:22.968Z,13.40
2017-07-22T15:54:50.478Z,13.48
2017-07-22T15:57:17.932Z,13.43
2017-07-22T15:59:46.258Z,12.85
2017-07-22T16:02:13.734Z,13.45
2017-07-22T16:04:41.187Z,13.35
2017-07-22T16:07:09.053Z,13.98
2017-07-22T16:09:36.499Z,14.07
2017-07-22T16:12:03.958Z,13.15
2017-07-22T16:14:31.397Z,13.62
2017-07-22T16:16:58.887Z,12.53
2017-07-22T16:19:26.437Z,12.82
2017-07-22T16:21:53.927Z,12.20
2017-07-22T16:24:22.244Z,12.52
2017-07-22T16:26:49.803Z,12.18
2017-07-22T16:29:17.299Z,11.93
2017-07-22T16:31:44.817Z,12.50
2017-07-22T16:34:12.290Z,12.90
2017-07-22T16:36:39.752Z,13.18
2017-07-22T16:39:07.291Z,12.90
2017-07-22T16:41:34.710Z,12.00
2017-07-22T16:44:02.933Z,13.15
2017-07-22T16:46:30.403Z,12.70
2017-07-22T16:48:57.852Z,12.37
2017-07-22T16:51:25.313Z,13.00
2017-07-22T16:53:52.768Z,12.05
2017-07-22T16:56:20.222Z,12.57
2017-07-22T16:58:47.690Z,12.80
2017-07-22T17:01:15.126Z,11.52
2017-07-22T17:03:42.587Z,11.60
2017-07-22T17:06:10.067Z,12.55
2017-07-22T17:08:37.606Z,12.10
2017-07-22T17:11:05.087Z,11.63
2017-07-22T17:13:33.310Z,11.50
2017-07-22T17:16:00.796Z,10.90
2017-07-22T17:18:28.257Z,11.85
2017-07-22T17:20:55.710Z,11.73
2017-07-22T17:23:23.344Z,11.33
2017-07-22T17:25:50.887Z,11.23
2017-07-22T17:28:18.417Z,11.63
2017-07-22T17:30:46.632Z,11.53
2017-07-22T17:33:14.148Z,11.55
2017-07-22T17:35:41.603Z,12.27
2017-07-22T17:38:09.840Z,11.77
2017-07-22T17:40:37.277Z,12.35
2017-07-22T17:43:04.784Z,13.57
2017-07-22T17:45:32.255Z,11.23
2017-07-22T17:47:59.766Z,10.90
2017-07-22T17:50:27.237Z,11.43
2017-07-22T17:52:54.781Z,10.45
2017-07-22T17:55:22.251Z,10.88
2017-07-22T17:57:49.690Z,10.90
2017-07-22T18:00:17.137Z,10.98
2017-07-22T18:02:44.592Z,10.77
2017-07-22T18:05:12.134Z,11.35
2017-07-22T18:07:39.669Z,11.23
2017-07-22T18:10:07.103Z,11.80
2017-07-22T18:12:34.648Z,11.40
2017-07-22T18:15:02.114Z,11.40
2017-07-22T18:17:29.582Z,11.93
2017-07-22T18:19:57.027Z,11.47
2017-07-22T18:22:24.487Z,12.25
2017-07-22T18:24:52.044Z,11.85
2017-07-22T18:27:19.481Z,12.45
2017-07-22T18:29:46.953Z,11.95
2017-07-22T18:32:14.459Z,11.38
2017-07-22T18:34:41.950Z,10.70
2017-07-22T18:37:09.414Z,11.55
2017-07-22T18:39:36.866Z,11.10
2017-07-22T18:42:04.332Z,10.70
2017-07-22T18:44:31.941Z,10.25
2017-07-22T18:46:59.384Z,9.68
2017-07-22T18:49:26.899Z,9.20
2017-07-22T18:51:54.453Z,8.48
2017-07-22T18:54:21.917Z,8.00
2017-07-22T18:56:49.404Z,9.00
2017-07-22T18:59:17.669Z,8.43
2017-07-22T19:01:45.205Z,7.93
2017-07-22T19:04:12.673Z,7.80
2017-07-22T19:06:40.119Z,7.78
2017-07-22T19:09:07.569Z,8.38
2017-07-22T19:11:35.043Z,7.55
2017-07-22T19:14:02.485Z,8.90
2017-07-22T19:16:29.946Z,8.73
2017-07-22T19:18:57.403Z,8.40
2017-07-22T19:21:24.906Z,8.43
2017-07-22T19:23:52.492Z,8.73
2017-07-22T19:26:19.912Z,8.77
2017-07-22T19:28:48.158Z,8.05
2017-07-22T19:31:15.619Z,8.15
2017-07-22T19:33:43.085Z,12.35
2017-07-22T19:36:11.310Z,8.13
2017-07-22T19:38:38.756Z,7.87
2017-07-22T19:41:06.242Z,8.00
2017-07-22T19:43:33.718Z,8.48
2017-07-22T19:46:01.205Z,7.40
2017-07-22T19:48:29.433Z,7.03
2017-07-22T19:50:56.890Z,8.57
2017-07-22T19:53:24.327Z,7.65
2017-07-22T19:55:51.764Z,7.18
2017-07-22T19:58:19.247Z,7.32
2017-07-22T20:00:46.728Z,7.87
2017-07-22T20:03:14.276Z,7.13
2017-07-22T20:05:41.804Z,7.55
2017-07-22T20:08:09.293Z,9.30
2017-07-22T20:10:36.750Z,9.20
2017-07-22T20:13:04.193Z,8.93
2017-07-22T20:15:31.654Z,11.02
2017-07-22T20:17:59.120Z,8.30
2017-07-22T20:20:26.581Z,9.80
2017-07-22T20:22:54.825Z,9.27
2017-07-22T20:25:22.271Z,9.57
2017-07-22T20:27:49.751Z,9.32
2017-07-22T20:30:17.215Z,10.07
2017-07-22T20:32:44.779Z,9.32
2017-07-22T20:35:12.219Z,10.45
2017-07-22T20:37:39.684Z,10.13
2017-07-22T20:40:07.150Z,10.10
2017-07-22T20:42:34.601Z,10.20
2017-07-22T20:45:02.120Z,10.32
2017-07-22T20:47:29.606Z,9.43
2017-07-22T20:49:57.179Z,10.90
2017-07-22T20:52:24.619Z,11.30
2017-07-22T20:54:52.064Z,11.57
2017-07-22T20:57:19.543Z,10.45
2017-07-22T20:59:46.987Z,12.73
2017-07-22T21:02:14.427Z,10.90
2017-07-22T21:04:41.895Z,12.70
2017-07-22T21:07:09.355Z,11.35
2017-07-22T21:09:36.816Z,12.15
2017-07-22T21:12:04.282Z,10.77
2017-07-22T21:14:31.744Z,12.10
2017-07-22T21:16:59.205Z,12.35
2017-07-22T21:19:26.665Z,12.18
2017-07-22T21:21:54.150Z,11.82
2017-07-22T21:24:22.383Z,11.80
2017-07-22T21:26:49.841Z,11.82
2017-07-22T21:29:17.302Z,12.90
2017-07-22T21:31:44.823Z,12.30
2017-07-22T21:34:12.315Z,12.00
2017-07-22T21:36:39.761Z,12.10
2017-07-22T21:39:07.217Z,13.65
2017-07-22T21:41:34.749Z,13.20
2017-07-22T21:44:02.193Z,15.45
2017-07-22T21:46:29.705Z,14.70
2017-07-22T21:48:57.148Z,15.60
2017-07-22T21:51:24.614Z,15.60
2017-07-22T21:53:52.057Z,15.68
2017-07-22T21:56:19.512Z,16.80
2017-07-22T21:58:46.965Z,17.73
2017-07-22T22:01:14.428Z,17.80
2017-07-22T22:03:41.877Z,18.77
2017-07-22T22:06:09.326Z,18.00
2017-07-22T22:08:36.764Z,18.60
2017-07-22T22:11:04.226Z,17.20
2017-07-22T22:13:31.784Z,17.98
2017-07-22T22:15:59.239Z,17.90
2017-07-22T22:18:26.719Z,17.62
2017-07-22T22:20:54.957Z,17.98
2017-07-22T22:23:22.397Z,18.02
2017-07-22T22:25:49.872Z,19.00
2017-07-22T22:28:17.299Z,19.00
2017-07-22T22:30:45.517Z,19.75
2017-07-22T22:33:12.968Z,20.15
2017-07-22T22:35:40.427Z,20.85
2017-07-22T22:38:07.933Z,19.83
2017-07-22T22:40:35.364Z,20.73
2017-07-22T22:43:02.820Z,19.58
2017-07-22T22:45:30.285Z,20.95
2017-07-22T22:47:57.841Z,21.17
2017-07-22T22:50:25.299Z,20.75
2017-07-22T22:52:52.751Z,21.93
2017-07-22T22:55:20.204Z,21.67
2017-07-22T22:57:47.765Z,21.50
2017-07-22T23:00:15.216Z,21.42
2017-07-22T23:02:42.711Z,20.75
2017-07-22T23:05:10.143Z,22.02
2017-07-22T23:07:37.581Z,21.90
2017-07-22T23:10:05.158Z,22.30
2017-07-22T23:12:32.592Z,22.92
2017-07-22T23:15:00.060Z,22.23
2017-07-22T23:17:27.495Z,24.48
2017-07-22T23:19:54.943Z,25.50
2017-07-22T23:22:22.399Z,24.67
2017-07-22T23:24:49.891Z,25.25
2017-07-22T23:27:17.339Z,25.62
2017-07-22T23:29:44.781Z,24.97
2017-07-22T23:32:12.256Z,25.65
2017-07-22T23:34:39.717Z,26.95
2017-07-22T23:37:07.175Z,26.90
2017-07-22T23:39:34.637Z,27.20
2017-07-22T23:42:02.191Z,28.17
2017-07-22T23:44:29.711Z,27.10
2017-07-22T23:46:57.181Z,27.25
2017-07-22T23:49:24.903Z,27.35
2017-07-22T23:51:52.490Z,28.10
2017-07-22T23:54:19.919Z,27.60
2017-07-22T23:56:47.416Z,27.83
2017-07-22T23:59:15.671Z,28.87
